Arcade, New York
Current Conditions -  °F | °C
As of 10:35 AM on Friday 19 Dec 2014 (Local Time) from KOLE Reporting Station
Overcast Overcast  
Wind Chill: 13°   Ceiling: 700
Heat Index: 21°   Visibility: 7mi
Dew Point: 21°   Wind: 7mph
Humidity: 100%   Direction: 290°WNW
Pressure: 30.09"   Gusts: NA
Location:  42.53°N, 78.42°W
Report Text: KOLE 191535Z AUTO 29006KT 7SM OVC007 M06/M06 A3009 RMK AO2
Loading
Personal Weather Stations






























Interactive Weather Map New forecast layout! Learn more

10-Day Weather Forecast

Advertisements
Track Severe Weather on mobile